This is the latest recevied weather packets stored in our database for station/object TA2CAY. If no packets are shown the sender has not sent any weather packets the latest 10 day(s).
| Time | Temp. | Humidity | Pressure | Rain* | Wind** | Luminosity | Snow |
|---|---|---|---|---|---|---|---|
| 1777276288 | 17.78° C | 54% | 1032.5 hPa | - | - | - | - |
| 1777274488 | 17.78° C | 55% | 1032.1 hPa | - | - | - | - |
| 1777272687 | 17.78° C | 56% | 1031.9 hPa | - | - | - | - |
| 1777270886 | 16.67° C | 59% | 1031.7 hPa | - | - | - | - |
| 1777269085 | 16.67° C | 59% | 1031.5 hPa | - | - | - | - |
| 1777267284 | 16.67° C | 59% | 1031.2 hPa | - | - | - | - |
| 1777265483 | 16.11° C | 61% | 1030.7 hPa | - | - | - | - |
| 1777263682 | 16.11° C | 61% | 1030.1 hPa | - | - | - | - |
| 1777261881 | 16.11° C | 63% | 1029.6 hPa | - | - | - | - |
| 1777260081 | 14.44° C | 67% | 1029.2 hPa | - | - | - | - |
| 1777258280 | 15° C | 67% | 1028.7 hPa | - | - | - | - |
| 1777256479 | 15.56° C | 66% | 1028.1 hPa | - | - | - | - |
| 1777254678 | 15° C | 68% | 1027.6 hPa | - | - | - | - |
| 1777252877 | 15° C | 67% | 1026.9 hPa | - | - | - | - |
| 1777251076 | 15.56° C | 65% | 1026.5 hPa | - | - | - | - |
| 1777249275 | 15° C | 68% | 1026.2 hPa | - | - | - | - |
| 1777247475 | 15° C | 67% | 1025.6 hPa | - | - | - | - |
| 1777245674 | 15.56° C | 66% | 1025.3 hPa | - | - | - | - |
| 1777243873 | 15° C | 69% | 1024.8 hPa | - | - | - | - |
| 1777242072 | 15.56° C | 69% | 1024 hPa | - | - | - | - |
| 1777240271 | 15.56° C | 69% | 1023.8 hPa | - | - | - | - |
| 1777238470 | 15° C | 71% | 1023.7 hPa | - | - | - | - |
| 1777236670 | 15.56° C | 71% | 1023.3 hPa | - | - | - | - |
| 1777234869 | 16.11° C | 72% | 1023.1 hPa | - | - | - | - |
| 1777233067 | 15.56° C | 75% | 1022.8 hPa | - | - | - | - |
* Rain since midnight (hover to see other rain measurements)
** Current wind speed in m/s (hover to see current wind gust speed)